Latest Coastal Weather Observations for Hindmarsh Island

IDS60701

Issued at 7:21 pm CST Saturday 28 May 2016 (issued every 10 minutes, with the page automatically refreshed every 10 minutes)

About coastal observations | Map of coastal stations | Coastal observations for SA | Marine services | Other Formats
Station Details ID: 023894 Name: HINDMARSH ISLAND AWS Lat: -35.52 Lon: 138.82 Height: 11.0 m
Data from the previous 72 hours. | See also: Recent months at Hindmarsh Island
Date/Time
CST
Temp

°C
Wind Pressure Rain
since 9am
mm
Weather Cloud Vis
km
Sea
Height
m
Swell
Dir
 
Speed
knots
Gust
knots
hPa Trend Height
m
Period
s
Dir
28/07:00pm 11.6 N 5 6 1018.6 - 0.0 - - - - - - -
28/06:30pm 12.4 N 4 5 1018.5 - 0.0 - - - - - - -
28/06:00pm 12.9 NE 3 4 1018.1 - 0.0 - - - - - - -
28/05:30pm 13.3 N 4 5 1017.9 - 0.0 - - - - - - -
28/05:00pm 13.8 CALM 0 0 1017.7 - 0.0 - - - - - - -
28/04:30pm 13.6 ESE 5 6 1017.5 - 0.0 - - - - - - -
28/04:00pm 14.0 ESE 7 9 1017.4 - 0.0 - - - - - - -
28/03:30pm 14.5 SE 6 8 1017.2 - 0.0 - - - - - - -
28/03:00pm 14.8 ESE 7 8 1017.1 - 0.0 - - - - - - -
28/02:30pm 14.6 ESE 6 8 1016.9 - 0.0 - - - - - - -
28/02:00pm 15.2 ESE 8 9 1016.7 - 0.0 - - - - - - -
28/01:30pm 15.4 ESE 9 10 1016.6 - 0.0 - - - - - - -
28/01:00pm 14.6 SSE 6 10 1016.7 - 0.0 - - - - - - -
28/12:30pm 15.4 ESE 8 11 1016.8 - 0.0 - - - - - - -
28/12:00pm 14.3 E 6 9 1017.1 - 0.0 - - - - - - -
28/11:30am 15.2 E 5 7 1017.1 - 0.0 - - - - - - -
28/11:00am 14.6 E 7 9 1017.1 - 0.0 - - - - - - -
28/10:30am 14.5 ENE 7 10 1017.0 - 0.0 - - - - - - -
28/10:00am 14.0 NNE 6 7 1016.9 - 0.0 - - - - - - -
28/09:30am 13.1 NNE 6 7 1016.5 - 0.0 - - - - - - -
28/09:00am 13.3 NNE 5 7 1016.2 - 8.4 - - - - - - -
28/08:30am 13.9 E 7 14 1015.9 - 8.4 - - - - - - -
28/08:00am 13.5 SE 16 19 1015.0 - 8.4 - - - - - - -
28/07:30am 12.8 SE 14 18 1014.4 - 8.4 - - - - - - -
28/07:00am 12.9 SE 16 19 1013.8 - 8.4 - - - - - - -
28/06:30am 12.9 SSE 19 22 1013.1 - 8.4 - - - - - - -
28/06:00am 12.8 SSE 20 24 1012.5 - 8.4 - - - - - - -
28/05:30am 13.3 SSE 24 29 1011.8 - 8.4 - - - - - - -
28/05:00am 13.8 SSE 20 25 1011.4 - 8.4 - - - - - - -
28/04:30am 13.7 SSE 21 25 1010.7 - 8.4 - - - - - - -
28/04:00am 13.5 SSE 19 29 1009.7 - 8.2 - - - - - - -
28/03:59am 13.9 SSE 15 25 1009.6 - 8.2 - - - - - - -
28/03:57am 13.9 SSE 15 25 1009.6 - 8.2 - - - - - - -
28/03:37am 13.1 SE 21 23 1009.1 - 8.2 - - - - - - -
28/03:30am 13.5 SSE 22 27 1008.7 - 8.2 - - - - - - -
28/03:28am 14.1 S 20 24 1008.7 - 8.2 - - - - - - -
28/03:00am 13.8 SSW 16 19 1008.8 - 8.2 - - - - - - -
28/02:30am 13.7 SSW 18 23 1008.8 - 8.2 - - - - - - -
28/02:15am 13.1 SSW 20 23 1008.7 - 8.2 - - - - - - -
28/02:00am 12.4 W 14 21 1009.0 - 8.2 - - - - - - -
28/01:30am 11.9 W 14 20 1008.8 - 7.8 - - - - - - -
28/01:00am 11.3 W 12 17 1008.8 - 7.8 - - - - - - -
28/12:30am 11.5 W 14 18 1008.7 - 7.8 - - - - - - -
28/12:00am 11.2 W 11 16 1008.7 - 7.8 - - - - - - -
 
Date/Time
CST
Temp

°C
Wind Pressure Rain
since 9am
mm
Weather Cloud Vis
km
Sea
Height
m
Swell
Dir
 
Speed
knots
Gust
knots
hPa Trend Height
m
Period
s
Dir
27/11:30pm 11.3 W 15 21 1008.7 - 7.8 - - - - - - -
27/11:00pm 11.1 W 15 20 1008.6 - 7.8 - - - - - - -
27/10:30pm 11.1 W 14 19 1008.6 - 7.8 - - - - - - -
27/10:00pm 10.8 W 12 18 1008.4 - 7.8 - - - - - - -
27/09:30pm 11.1 W 15 21 1008.4 - 7.8 - - - - - - -
27/09:00pm 11.3 W 20 32 1007.8 - 7.8 - - - - - - -
27/08:55pm 11.4 W 19 29 1007.9 - 7.8 - - - - - - -
27/08:53pm 11.4 W 19 29 1007.9 - 7.8 - - - - - - -
27/08:30pm 11.3 W 14 21 1008.0 - 7.6 - - - - - - -
27/08:00pm 11.1 W 20 27 1007.6 - 7.6 - - - - - - -
27/07:34pm 11.1 W 19 29 1007.4 - 7.6 - - - - - - -
27/07:32pm 11.1 W 19 29 1007.4 - 7.6 - - - - - - -
27/07:30pm 11.2 WSW 20 29 1007.4 - 7.6 - - - - - - -
27/07:11pm 11.0 WSW 18 28 1007.1 - 7.4 - - - - - - -
27/07:09pm 11.0 WSW 18 28 1007.1 - 7.4 - - - - - - -
27/07:00pm 10.7 W 20 28 1007.0 - 7.4 - - - - - - -
27/06:30pm 10.3 WSW 21 33 1007.0 - 6.6 - - - - - - -
27/06:00pm 11.0 W 19 32 1006.7 - 5.0 - - - - - - -
27/05:56pm 11.6 W 17 32 1006.5 - 4.8 - - - - - - -
27/05:54pm 11.6 W 17 32 1006.5 - 4.8 - - - - - - -
27/05:30pm 11.8 W 13 21 1006.0 - 4.8 - - - - - - -
27/05:00pm 11.5 W 9 11 1005.8 - 4.8 - - - - - - -
27/04:30pm 11.0 WNW 10 13 1005.6 - 4.8 - - - - - - -
27/04:00pm 10.3 W 10 14 1005.4 - 4.6 - - - - - - -
27/03:34pm 10.3 W 18 28 1005.5 - 4.4 - - - - - - -
27/03:30pm 10.6 WSW 20 28 1005.6 - 4.2 - - - - - - -
27/03:29pm 12.3 W 17 28 1005.6 - 4.0 - - - - - - -
27/03:28pm 11.1 WSW 21 28 1005.5 - 4.2 - - - - - - -
27/03:00pm 12.5 WNW 11 16 1005.1 - 4.0 - - - - - - -
27/02:30pm 11.0 WNW 9 13 1005.4 - 4.0 - - - - - - -
27/02:00pm 10.8 W 8 14 1005.0 - 4.0 - - - - - - -
27/01:30pm 11.2 W 14 21 1005.3 - 3.8 - - - - - - -
27/01:11pm 11.4 W 15 25 1005.4 - 3.4 - - - - - - -
27/01:09pm 11.4 W 15 25 1005.4 - 3.4 - - - - - - -
27/01:00pm 11.9 W 14 22 1005.7 - 2.8 - - - - - - -
27/12:30pm 12.0 NW 9 12 1005.6 - 2.6 - - - - - - -
27/12:00pm 11.3 WNW 15 23 1005.8 - 2.4 - - - - - - -
27/11:47am 12.9 WNW 17 34 1006.1 - 0.0 - - - - - - -
27/11:45am 12.9 WNW 17 34 1006.1 - 0.0 - - - - - - -
27/11:30am 14.4 NNW 9 12 1006.1 - 0.0 - - - - - - -
27/11:00am 13.4 NW 7 9 1006.5 - 0.0 - - - - - - -
27/10:30am 14.0 WNW 9 12 1006.7 - 0.0 - - - - - - -
27/10:00am 14.5 WNW 10 13 1006.8 - 0.0 - - - - - - -
27/09:30am 13.5 WNW 11 15 1006.9 - 0.0 - - - - - - -
27/09:00am 12.9 WNW 9 12 1007.0 - 7.8 - - - - - - -
27/08:30am 12.7 WNW 10 14 1007.1 - 7.8 - - - - - - -
27/08:00am 12.5 W 14 22 1007.1 - 7.6 - - - - - - -
27/07:49am 12.9 W 15 23 1007.3 - 7.4 - - - - - - -
27/07:30am 12.7 WNW 11 14 1007.2 - 6.6 - - - - - - -
27/07:00am 12.4 NNW 6 8 1007.1 - 6.6 - - - - - - -
27/06:30am 12.1 SSW 2 6 1007.5 - 4.4 - - - - - - -
27/06:00am 12.2 NW 4 5 1007.4 - 3.2 - - - - - - -
27/05:30am 12.2 NNW 5 8 1007.5 - 2.8 - - - - - - -
27/05:00am 12.1 N 7 11 1008.2 - 0.4 - - - - - - -
27/04:30am 12.0 N 7 9 1008.1 - 0.4 - - - - - - -
27/04:00am 11.5 N 7 9 1008.6 - 0.4 - - - - - - -
27/03:30am 11.1 N 7 8 1008.6 - 0.4 - - - - - - -
27/03:00am 10.6 N 6 7 1009.1 - 0.4 - - - - - - -
27/02:30am 10.5 N 6 7 1009.3 - 0.4 - - - - - - -
27/02:00am 10.9 NNW 6 8 1009.6 - 0.4 - - - - - - -
27/01:30am 10.5 N 7 9 1009.8 - 0.4 - - - - - - -
27/01:00am 9.7 N 7 8 1009.9 - 0.4 - - - - - - -
27/12:30am 10.0 N 6 7 1010.2 - 0.4 - - - - - - -
27/12:00am 10.7 NNW 5 6 1010.6 - 0.4 - - - - - - -
 
Date/Time
CST
Temp

°C
Wind Pressure Rain
since 9am
mm
Weather Cloud Vis
km
Sea
Height
m
Swell
Dir
 
Speed
knots
Gust
knots
hPa Trend Height
m
Period
s
Dir
26/11:30pm 11.2 WNW 5 7 1010.6 - 0.4 - - - - - - -
26/11:00pm 11.0 WNW 7 8 1010.9 - 0.4 - - - - - - -
26/10:30pm 10.9 WNW 5 6 1010.9 - 0.4 - - - - - - -
26/10:00pm 11.3 W 5 8 1011.2 - 0.4 - - - - - - -
26/09:30pm 11.5 NW 8 9 1011.3 - 0.4 - - - - - - -
26/09:00pm 11.7 WNW 7 8 1011.4 - 0.4 - - - - - - -
26/08:30pm 12.2 WNW 6 8 1011.3 - 0.4 - - - - - - -
26/08:00pm 12.9 W 7 9 1011.3 - 0.4 - - - - - - -
26/07:30pm 12.5 W 7 10 1011.1 - 0.4 - - - - - - -
26/07:00pm 12.3 WNW 6 8 1010.8 - 0.4 - - - - - - -
26/06:30pm 12.9 WNW 7 8 1010.6 - 0.4 - - - - - - -
26/06:00pm 13.3 WNW 7 8 1010.3 - 0.4 - - - - - - -
26/05:30pm 13.8 WNW 7 9 1010.1 - 0.4 - - - - - - -
26/05:00pm 14.7 WSW 8 11 1009.8 - 0.4 - - - - - - -
26/04:30pm 14.6 SW 10 12 1009.4 - 0.4 - - - - - - -
26/04:00pm 14.9 WSW 10 13 1009.3 - 0.4 - - - - - - -
26/03:30pm 16.0 WSW 11 14 1009.1 - 0.4 - - - - - - -
26/03:00pm 15.8 WSW 11 15 1009.1 - 0.4 - - - - - - -
26/02:30pm 14.4 SW 16 21 1008.7 - 0.4 - - - - - - -
26/02:00pm 16.7 SW 13 16 1008.7 - 0.4 - - - - - - -
26/01:30pm 15.6 SSW 20 24 1008.7 - 0.4 - - - - - - -
26/01:29pm 15.8 SSW 20 24 1008.8 - 0.4 - - - - - - -
26/01:27pm 15.8 SSW 20 24 1008.8 - 0.4 - - - - - - -
26/01:00pm 16.9 WSW 12 16 1008.9 - 0.4 - - - - - - -
26/12:30pm 16.8 WSW 14 18 1008.8 - 0.4 - - - - - - -
26/12:00pm 16.6 SW 14 17 1009.0 - 0.4 - - - - - - -
26/11:30am 16.1 WSW 13 17 1009.1 - 0.4 - - - - - - -
26/11:00am 15.6 SW 14 18 1009.3 - 0.4 - - - - - - -
26/10:30am 14.8 W 9 16 1009.3 - 0.4 - - - - - - -
26/10:00am 13.4 SW 8 9 1009.4 - 0.4 - - - - - - -
26/09:30am 12.6 SW 14 21 1009.3 - 0.0 - - - - - - -
26/09:00am 13.9 W 10 13 1008.8 - 1.6 Fine Partly cloudy 17 - - - -
26/08:30am 12.1 NNW 3 5 1008.8 - 1.6 - - - - - - -
26/08:00am 12.1 WNW 5 7 1008.6 - 1.4 - - - - - - -
26/07:30am 12.6 WSW 10 14 1008.5 - 1.4 - - - - - - -
26/07:00am 12.4 WSW 11 15 1008.2 - 1.4 - - - - - - -
26/06:30am 13.1 SW 10 13 1007.7 - 0.4 - - - - - - -
26/06:00am 11.9 WSW 7 9 1007.5 - 0.4 - - - - - - -
26/05:30am 13.6 SSW 17 26 1007.3 - 0.0 - - - - - - -
26/05:28am 13.6 SSW 15 26 1007.2 - 0.0 - - - - - - -
26/05:00am 14.0 SW 12 15 1007.1 - 0.0 - - - - - - -
26/04:30am 14.0 SW 11 14 1006.9 - 0.0 - - - - - - -
26/04:00am 13.7 SSW 10 11 1006.7 - 0.0 - - - - - - -
26/03:30am 13.8 S 13 16 1006.8 - 0.0 - - - - - - -
26/03:00am 13.7 S 15 21 1006.6 - 0.0 - - - - - - -
26/02:30am 14.8 SSW 14 21 1006.3 - 0.0 - - - - - - -
26/02:00am 14.3 SSW 10 13 1006.5 - 0.0 - - - - - - -
26/01:30am 14.5 SSW 11 14 1006.3 - 0.0 - - - - - - -
26/01:00am 14.5 SSW 10 12 1006.3 - 0.0 - - - - - - -
26/12:30am 14.9 SSW 12 13 1006.4 - 0.0 - - - - - - -
26/12:00am 14.9 SSW 12 14 1006.5 - 0.0 - - - - - - -
 
Date/Time
CST
Temp

°C
Wind Pressure Rain
since 9am
mm
Weather Cloud Vis
km
Sea
Height
m
Swell
Dir
 
Speed
knots
Gust
knots
hPa Trend Height
m
Period
s
Dir
25/11:30pm 14.9 SSW 11 15 1006.5 - 0.0 - - - - - - -
25/11:00pm 15.0 S 12 14 1006.5 - 0.0 - - - - - - -
25/10:30pm 14.9 S 11 13 1006.6 - 0.0 - - - - - - -
25/10:00pm 15.2 SSW 10 12 1006.8 - 0.0 - - - - - - -
25/09:30pm 15.1 SSW 9 12 1006.7 - 0.0 - - - - - - -
25/09:00pm 15.2 SW 11 14 1006.5 - 0.0 - - - - - - -
25/08:30pm 15.1 NW 6 8 1006.4 - 0.0 - - - - - - -
25/08:00pm 15.0 NNW 8 11 1006.5 - 0.0 - - - - - - -
25/07:30pm 15.1 NNW 10 13 1006.5 - 0.0 - - - - - - -

Other Formats:

Comma delimited format used in spreadsheet applications
http://www.bom.gov.au/fwo/IDS60701/IDS60701.94677.axf

JavaScript Object Notation format (JSON) in row-major order
http://www.bom.gov.au/fwo/IDS60701/IDS60701.94677.json